Time;durP1;ratioP1;P1;durP2;ratioP2;P2;SDS_P1;SDS_P2;PMS_P1;PMS_P2;Temp;Humidity;BMP_temperature;BMP_pressure;BME280_temperature;BME280_humidity;BME280_pressure;Samples;Min_cycle;Max_cycle;Signal;HPM_P1;HPM_P2
2022/08/05 21:19:56;;;;;;;3.20;2.90;;;21.70;95.80;;;;;;6150235;23;20454;-77
2022/08/05 21:22:23;;;;;;;3.00;2.53;;;21.80;96.00;;;;;;6156508;23;20748;-78
2022/08/05 21:24:51;;;;;;;7.63;2.80;;;21.80;96.10;;;;;;6157258;23;20444;-77
2022/08/05 21:27:20;;;;;;;4.00;2.37;;;21.80;96.10;;;;;;6159772;23;20460;-86
2022/08/05 21:29:47;;;;;;;2.90;2.70;;;21.80;96.30;;;;;;6149025;23;20453;-87
2022/08/05 21:32:17;;;;;;;3.20;2.83;;;21.80;96.40;;;;;;6159501;23;20437;-87
2022/08/05 21:34:44;;;;;;;2.70;2.50;;;21.70;96.50;;;;;;6159204;23;20782;-77
2022/08/05 21:37:13;;;;;;;2.90;2.70;;;21.70;96.50;;;;;;6119606;23;20446;-87
2022/08/05 21:39:43;;;;;;;5.30;4.53;;;21.70;96.60;;;;;;6159606;23;20414;-77
2022/08/05 21:42:11;;;;;;;3.43;3.13;;;21.70;96.70;;;;;;6157587;23;20507;-77
2022/08/05 21:44:38;;;;;;;3.20;3.00;;;21.70;96.80;;;;;;6154328;23;20459;-78
2022/08/05 21:47:06;;;;;;;5.80;5.30;;;21.70;96.70;;;;;;6132629;23;20449;-77
2022/08/05 21:49:33;;;;;;;5.90;5.47;;;21.70;96.80;;;;;;6140163;23;20969;-78
2022/08/05 21:52:00;;;;;;;6.50;6.00;;;21.70;96.90;;;;;;6156600;23;20441;-86
2022/08/05 21:54:31;;;;;;;4.73;4.33;;;21.70;97.10;;;;;;6154724;23;20446;-77
2022/08/05 21:56:58;;;;;;;2.93;2.73;;;21.70;97.10;;;;;;6156414;23;20710;-78
2022/08/05 21:59:25;;;;;;;5.00;4.53;;;21.60;97.30;;;;;;6118015;23;20918;-88
2022/08/05 22:01:53;;;;;;;3.67;3.37;;;21.60;97.40;;;;;;6156545;23;20453;-77
2022/08/05 22:04:20;;;;;;;3.23;3.03;;;21.60;97.50;;;;;;6157336;23;20499;-77
2022/08/05 22:06:47;;;;;;;3.00;2.80;;;21.50;97.70;;;;;;6156119;23;20532;-87
2022/08/05 22:09:14;;;;;;;2.50;2.30;;;21.50;97.90;;;;;;6156767;23;20468;-88
2022/08/05 22:11:43;;;;;;;2.80;2.40;;;21.50;98.00;;;;;;6156292;23;20450;-88
2022/08/05 22:14:12;;;;;;;3.00;2.30;;;21.50;98.10;;;;;;6157157;23;20444;-87
2022/08/05 22:16:39;;;;;;;4.47;2.17;;;21.50;98.30;;;;;;6154520;23;20442;-79
2022/08/05 22:19:06;;;;;;;4.20;3.20;;;21.50;98.40;;;;;;6155091;23;20503;-79
2022/08/05 22:21:33;;;;;;;2.90;2.70;;;21.50;98.50;;;;;;6150066;23;20454;-80
2022/08/05 22:29:31;;;;;;;3.40;2.90;;;21.40;98.90;;;;;;6155526;23;20518;-86
2022/08/05 22:31:58;;;;;;;2.97;2.77;;;21.40;99.10;;;;;;6155567;23;20438;-78
2022/08/05 22:34:25;;;;;;;2.93;2.63;;;21.40;99.20;;;;;;6154871;23;20516;-78
2022/08/05 22:36:52;;;;;;;3.23;2.97;;;21.30;99.30;;;;;;6156392;23;20491;-77
2022/08/05 22:39:19;;;;;;;4.70;3.53;;;21.30;99.30;;;;;;6154273;23;20527;-78
2022/08/05 22:41:47;;;;;;;4.77;4.40;;;21.30;99.40;;;;;;6153802;23;20912;-77
2022/08/05 22:44:17;;;;;;;2.90;2.60;;;21.30;99.50;;;;;;6154663;23;20442;-77
2022/08/05 22:46:44;;;;;;;3.93;2.90;;;21.30;99.60;;;;;;6153324;23;20506;-78
2022/08/05 22:49:12;;;;;;;3.97;3.67;;;21.30;99.60;;;;;;6154635;23;20438;-86
2022/08/05 22:51:39;;;;;;;4.07;3.33;;;21.20;99.60;;;;;;6114514;23;20489;-87
2022/08/05 22:54:15;;;;;;;3.67;3.37;;;21.20;99.60;;;;;;6155673;23;20427;-86
2022/08/05 22:56:42;;;;;;;4.10;3.80;;;21.20;99.50;;;;;;6127900;23;20532;-86
2022/08/05 22:59:10;;;;;;;2.90;2.57;;;21.20;99.50;;;;;;6110807;23;20747;-86
2022/08/05 23:01:37;;;;;;;4.50;3.83;;;21.20;99.30;;;;;;6149702;23;20504;-78
2022/08/05 23:04:05;;;;;;;3.40;3.10;;;21.10;99.10;;;;;;6153945;23;20747;-77
2022/08/05 23:06:35;;;;;;;3.47;3.17;;;21.10;99.10;;;;;;6153549;23;20439;-78
2022/08/05 23:09:15;;;;;;;4.33;3.93;;;21.10;99.00;;;;;;6154532;23;20493;-87
2022/08/05 23:11:45;;;;;;;4.20;2.50;;;21.10;98.90;;;;;;6154504;23;20457;-77
2022/08/05 23:14:14;;;;;;;4.70;4.30;;;21.00;98.70;;;;;;6160181;23;20442;-88
2022/08/05 23:19:26;;;;;;;4.93;2.70;;;20.90;98.70;;;;;;6159978;23;20464;-86
2022/08/05 23:21:53;;;;;;;3.37;2.60;;;20.90;98.40;;;;;;6154772;23;20425;-86
2022/08/05 23:24:23;;;;;;;3.80;3.50;;;20.90;97.90;;;;;;6154872;23;20442;-77
2022/08/05 23:26:53;;;;;;;2.80;2.23;;;20.80;97.70;;;;;;6154602;23;20868;-86
2022/08/05 23:29:21;;;;;;;3.43;3.13;;;20.80;97.60;;;;;;6154677;23;20448;-78
2022/08/05 23:31:48;;;;;;;3.63;3.00;;;20.70;97.30;;;;;;6153963;23;20435;-78
2022/08/05 23:34:16;;;;;;;5.87;3.80;;;20.70;97.00;;;;;;6155388;23;20719;-88
2022/08/05 23:36:43;;;;;;;3.10;2.80;;;20.70;97.00;;;;;;6155628;23;20512;-85
2022/08/05 23:39:10;;;;;;;2.50;2.30;;;20.70;96.90;;;;;;6154251;23;20430;-77
2022/08/05 23:41:40;;;;;;;3.67;2.70;;;20.60;96.50;;;;;;6152953;23;20461;-77
2022/08/05 23:44:08;;;;;;;4.77;3.67;;;20.50;96.20;;;;;;6154400;23;20503;-85
2022/08/05 23:46:38;;;;;;;3.53;3.23;;;20.50;96.10;;;;;;6153999;23;20445;-76
2022/08/05 23:49:06;;;;;;;3.23;2.93;;;20.50;96.00;;;;;;6158683;23;20430;-86
2022/08/05 23:54:15;;;;;;;2.87;2.67;;;20.40;96.00;;;;;;6153345;23;20426;-76
2022/08/05 23:56:43;;;;;;;3.17;2.40;;;20.40;95.70;;;;;;6148211;23;20461;-76
2022/08/05 23:59:10;;;;;;;3.20;2.73;;;20.40;95.70;;;;;;6156472;23;20433;-75
